createdAt,value
2017-11-23T00:01:07.818Z,139.93
2017-11-23T00:03:37.399Z,120.07
2017-11-23T00:06:06.211Z,52.80
2017-11-23T00:08:34.564Z,45.07
2017-11-23T00:11:04.128Z,44.57
2017-11-23T00:13:33.390Z,43.93
2017-11-23T00:16:03.141Z,51.47
2017-11-23T00:18:32.103Z,47.63
2017-11-23T00:21:01.553Z,59.67
2017-11-23T00:23:41.073Z,53.50
2017-11-23T00:26:12.663Z,44.07
2017-11-23T00:28:41.987Z,47.93
2017-11-23T00:31:12.203Z,75.87
2017-11-23T00:33:40.748Z,55.00
2017-11-23T00:36:09.886Z,55.60
2017-11-23T00:38:39.360Z,54.17
2017-11-23T00:41:09.861Z,41.20
2017-11-23T00:43:38.873Z,48.50
2017-11-23T00:46:07.131Z,40.40
2017-11-23T00:48:35.983Z,53.13
2017-11-23T00:51:07.591Z,50.50
2017-11-23T00:53:37.674Z,47.43
2017-11-23T00:56:08.702Z,44.20
2017-11-23T00:58:37.290Z,45.23
2017-11-23T01:01:05.778Z,53.80
2017-11-23T01:03:35.309Z,58.80
2017-11-23T01:06:05.117Z,53.87
2017-11-23T01:08:34.604Z,59.60
2017-11-23T01:11:03.193Z,51.60
2017-11-23T01:13:33.135Z,54.50
2017-11-23T01:16:06.206Z,51.53
2017-11-23T01:18:36.227Z,43.27
2017-11-23T01:21:04.945Z,54.00
2017-11-23T01:23:34.173Z,53.27
2017-11-23T01:26:02.729Z,54.77
2017-11-23T01:28:31.636Z,51.33
2017-11-23T01:31:01.489Z,50.80
2017-11-23T01:33:30.061Z,39.93
2017-11-23T01:36:00.595Z,46.33
2017-11-23T01:38:32.456Z,40.27
2017-11-23T01:41:02.806Z,43.20
2017-11-23T01:43:32.895Z,39.77
2017-11-23T01:46:02.273Z,37.97
2017-11-23T01:48:30.549Z,46.93
2017-11-23T01:50:59.281Z,43.47
2017-11-23T01:53:31.493Z,44.13
2017-11-23T01:56:00.009Z,35.27
2017-11-23T01:58:29.185Z,39.43
2017-11-23T02:00:58.049Z,41.90
2017-11-23T02:03:27.547Z,40.90
2017-11-23T02:05:56.253Z,46.10
2017-11-23T02:08:24.564Z,42.90
2017-11-23T02:10:56.473Z,41.50
2017-11-23T02:13:31.843Z,42.47
2017-11-23T02:16:04.154Z,37.37
2017-11-23T02:18:33.945Z,36.60
2017-11-23T02:21:02.281Z,36.60
2017-11-23T02:23:34.224Z,42.17
2017-11-23T02:26:02.563Z,48.80
2017-11-23T02:28:32.220Z,43.33
2017-11-23T02:31:00.678Z,39.90
2017-11-23T02:33:30.247Z,44.67
2017-11-23T02:36:00.045Z,37.00
2017-11-23T02:38:29.244Z,51.17
2017-11-23T02:40:57.552Z,45.93
2017-11-23T02:43:26.328Z,45.43
2017-11-23T02:45:56.546Z,39.10
2017-11-23T02:48:25.315Z,33.50
2017-11-23T02:50:53.566Z,36.90
2017-11-23T02:53:22.271Z,38.37
2017-11-23T02:55:51.634Z,37.73
2017-11-23T02:58:21.635Z,46.90
2017-11-23T03:00:49.992Z,35.80
2017-11-23T03:03:18.815Z,35.13
2017-11-23T03:05:49.356Z,48.97
2017-11-23T03:08:18.549Z,43.20
2017-11-23T03:10:48.827Z,42.40
2017-11-23T03:13:17.733Z,36.17
2017-11-23T03:15:48.095Z,35.73
2017-11-23T03:18:17.340Z,29.90
2017-11-23T03:20:46.134Z,34.73
2017-11-23T03:23:14.585Z,35.53
2017-11-23T03:25:43.845Z,36.07
2017-11-23T03:28:12.859Z,29.67
2017-11-23T03:30:43.172Z,34.77
2017-11-23T03:33:12.560Z,35.27
2017-11-23T03:35:41.861Z,33.97
2017-11-23T03:38:15.230Z,34.73
2017-11-23T03:40:43.642Z,32.30
2017-11-23T03:43:12.586Z,51.93
2017-11-23T03:45:41.039Z,29.80
2017-11-23T03:48:09.951Z,33.97
2017-11-23T03:50:38.541Z,34.10
2017-11-23T03:53:14.327Z,30.27
2017-11-23T03:55:43.608Z,29.67
2017-11-23T03:58:15.137Z,34.00
2017-11-23T04:00:43.709Z,31.83
2017-11-23T04:03:13.012Z,31.10
2017-11-23T04:05:43.114Z,31.60
2017-11-23T04:08:11.957Z,32.37
2017-11-23T04:10:44.405Z,34.10
2017-11-23T04:13:13.939Z,34.07
2017-11-23T04:15:42.632Z,29.80
2017-11-23T04:18:11.366Z,33.90
2017-11-23T04:20:40.095Z,30.60
2017-11-23T04:23:10.012Z,51.13
2017-11-23T04:25:38.493Z,50.70
2017-11-23T04:28:10.840Z,62.20
2017-11-23T04:30:40.072Z,47.90
2017-11-23T04:33:10.281Z,31.73
2017-11-23T04:35:39.384Z,67.60
2017-11-23T04:38:08.932Z,26.53
2017-11-23T04:40:37.521Z,33.70
2017-11-23T04:43:06.096Z,65.30
2017-11-23T04:45:34.840Z,61.27
2017-11-23T04:48:04.356Z,31.37
2017-11-23T04:50:44.850Z,32.40
2017-11-23T04:53:13.293Z,32.30
2017-11-23T04:55:43.787Z,33.10
2017-11-23T04:58:16.023Z,31.40
2017-11-23T05:00:47.741Z,41.43
2017-11-23T05:03:17.485Z,38.83
2017-11-23T05:05:47.107Z,48.60
2017-11-23T05:08:16.756Z,57.70
2017-11-23T05:10:46.416Z,31.17
2017-11-23T05:13:23.866Z,33.30
2017-11-23T05:15:52.260Z,34.30
2017-11-23T05:18:25.612Z,64.10
2017-11-23T05:20:55.802Z,53.90
2017-11-23T05:23:24.203Z,58.50
2017-11-23T05:25:55.449Z,38.20
2017-11-23T05:28:24.750Z,39.57
2017-11-23T05:30:54.503Z,32.43
2017-11-23T05:33:24.368Z,32.67
2017-11-23T05:35:52.989Z,71.47
2017-11-23T05:38:22.876Z,61.00
2017-11-23T05:40:52.255Z,48.80
2017-11-23T05:43:20.625Z,37.27
2017-11-23T05:45:49.149Z,37.73
2017-11-23T05:48:18.845Z,33.23
2017-11-23T05:50:48.945Z,36.30
2017-11-23T05:53:17.684Z,35.10
2017-11-23T05:55:46.768Z,38.43
2017-11-23T05:58:15.406Z,60.93
2017-11-23T06:00:43.971Z,59.37
2017-11-23T06:03:13.412Z,50.80
2017-11-23T06:05:43.689Z,61.23
2017-11-23T06:08:14.243Z,64.33
2017-11-23T06:10:42.720Z,61.43
2017-11-23T06:13:13.147Z,50.57
2017-11-23T06:15:42.915Z,49.10
2017-11-23T06:18:12.999Z,38.43
2017-11-23T06:20:44.711Z,32.47
2017-11-23T06:23:16.875Z,38.87
2017-11-23T06:25:49.511Z,34.93
2017-11-23T06:28:28.915Z,35.60
2017-11-23T06:30:59.155Z,31.13
2017-11-23T06:33:28.928Z,32.70
2017-11-23T06:35:57.811Z,35.40
2017-11-23T06:38:30.166Z,33.73
2017-11-23T06:40:59.527Z,32.40
2017-11-23T06:43:28.647Z,33.17
2017-11-23T06:45:57.628Z,34.13
2017-11-23T06:48:26.812Z,30.90
2017-11-23T06:50:56.280Z,33.27
2017-11-23T06:53:26.462Z,33.47
2017-11-23T06:55:57.293Z,30.37
2017-11-23T06:58:27.256Z,33.63
2017-11-23T07:00:55.585Z,35.57
2017-11-23T07:03:27.131Z,31.60
2017-11-23T07:05:56.275Z,36.57
2017-11-23T07:08:28.586Z,33.57
2017-11-23T07:11:04.630Z,34.37
2017-11-23T07:13:33.896Z,33.67
2017-11-23T07:16:03.248Z,35.23
2017-11-23T07:18:32.073Z,34.13
2017-11-23T07:21:01.861Z,59.43
2017-11-23T07:23:37.193Z,43.70
2017-11-23T07:26:06.996Z,32.47
2017-11-23T07:28:35.920Z,31.20
2017-11-23T07:31:05.033Z,36.13
2017-11-23T07:33:34.906Z,49.93
2017-11-23T07:36:05.290Z,29.83
2017-11-23T07:38:34.430Z,43.83
2017-11-23T07:41:03.196Z,28.73
2017-11-23T07:43:32.593Z,36.03
2017-11-23T07:46:01.886Z,32.60
2017-11-23T07:48:30.731Z,32.23
2017-11-23T07:50:59.429Z,34.90
2017-11-23T07:53:28.657Z,32.57
2017-11-23T07:55:58.616Z,41.40
2017-11-23T07:58:30.054Z,41.60
2017-11-23T08:00:59.868Z,31.80
2017-11-23T08:03:28.394Z,38.30
2017-11-23T08:05:59.016Z,31.07
2017-11-23T08:08:28.398Z,44.17
2017-11-23T08:10:57.373Z,38.80
2017-11-23T08:13:26.499Z,47.60
2017-11-23T08:15:55.887Z,44.37
2017-11-23T08:18:25.392Z,41.57
2017-11-23T08:20:53.828Z,57.43
2017-11-23T08:23:23.242Z,37.23
2017-11-23T08:25:53.054Z,32.00
2017-11-23T08:28:21.324Z,31.57
2017-11-23T08:30:49.580Z,43.33
2017-11-23T08:33:18.892Z,44.80
2017-11-23T08:35:47.513Z,52.80
2017-11-23T08:38:23.161Z,56.60
2017-11-23T08:40:52.492Z,55.53
2017-11-23T08:43:21.634Z,54.33
2017-11-23T08:45:49.889Z,36.20
2017-11-23T08:48:18.393Z,31.43
2017-11-23T08:50:47.034Z,33.57
2017-11-23T08:53:17.499Z,32.30
2017-11-23T08:55:49.987Z,27.60
2017-11-23T08:58:19.247Z,37.13
2017-11-23T09:00:48.450Z,34.00
2017-11-23T09:03:19.871Z,31.23
2017-11-23T09:05:50.842Z,30.70
2017-11-23T09:08:19.147Z,25.13
2017-11-23T09:10:50.626Z,26.63
2017-11-23T09:13:19.271Z,24.30
2017-11-23T09:15:49.513Z,26.70
2017-11-23T09:18:18.429Z,29.43
2017-11-23T09:20:47.967Z,22.03
2017-11-23T09:23:16.901Z,21.87
2017-11-23T09:25:45.455Z,28.80
2017-11-23T09:28:15.233Z,22.07
2017-11-23T09:30:44.344Z,22.20
2017-11-23T09:33:16.253Z,23.63
2017-11-23T09:35:44.587Z,23.47
2017-11-23T09:38:16.528Z,20.90
2017-11-23T09:40:45.962Z,24.80
2017-11-23T09:43:15.373Z,20.33
2017-11-23T09:45:44.027Z,25.83
2017-11-23T09:48:12.539Z,19.80
2017-11-23T09:50:43.969Z,19.00
2017-11-23T09:53:13.525Z,25.30
2017-11-23T09:55:42.900Z,20.47
2017-11-23T09:58:13.980Z,17.70
2017-11-23T10:00:43.175Z,18.73
2017-11-23T10:03:13.530Z,23.20
2017-11-23T10:05:45.493Z,18.10
2017-11-23T10:08:14.257Z,18.33
2017-11-23T10:10:43.407Z,19.70
2017-11-23T10:13:12.780Z,20.23
2017-11-23T10:15:43.928Z,19.40
2017-11-23T10:18:12.613Z,19.53
2017-11-23T10:20:40.889Z,16.13
2017-11-23T10:23:09.189Z,15.90
2017-11-23T10:25:38.524Z,19.57
2017-11-23T10:28:07.028Z,16.13
2017-11-23T10:30:35.336Z,14.90
2017-11-23T10:33:03.904Z,14.00
2017-11-23T10:35:32.185Z,20.17
2017-11-23T10:38:02.501Z,17.50
2017-11-23T10:40:31.833Z,16.97
2017-11-23T10:43:01.112Z,14.93
2017-11-23T10:45:30.418Z,13.20
2017-11-23T10:47:58.846Z,14.30
2017-11-23T10:50:27.952Z,17.90
2017-11-23T10:52:57.901Z,19.73
2017-11-23T10:55:26.186Z,17.13
2017-11-23T10:57:54.494Z,19.33
2017-11-23T11:00:23.158Z,17.73
2017-11-23T11:02:51.533Z,23.43
2017-11-23T11:05:21.204Z,26.03
2017-11-23T11:07:49.653Z,24.33
2017-11-23T11:10:18.143Z,11.57
2017-11-23T11:12:47.513Z,15.63
2017-11-23T11:15:16.535Z,12.50
2017-11-23T11:17:45.017Z,15.23
2017-11-23T11:20:14.052Z,17.40
2017-11-23T11:22:42.557Z,13.83
2017-11-23T11:25:11.894Z,13.53
2017-11-23T11:27:41.290Z,19.70
2017-11-23T11:30:09.567Z,12.93
2017-11-23T11:32:38.733Z,14.53
2017-11-23T11:35:07.080Z,11.50
2017-11-23T11:37:36.135Z,10.33
2017-11-23T11:40:05.256Z,13.73
2017-11-23T11:42:33.527Z,11.00
2017-11-23T11:45:02.607Z,10.30
2017-11-23T11:47:31.776Z,10.20
2017-11-23T11:50:01.096Z,10.83
2017-11-23T11:52:30.167Z,9.83
2017-11-23T11:55:00.524Z,11.23
2017-11-23T11:57:29.023Z,15.10
2017-11-23T11:59:57.577Z,10.80
2017-11-23T12:02:27.747Z,9.30
2017-11-23T12:04:56.400Z,10.17
2017-11-23T12:07:26.708Z,7.80
2017-11-23T12:09:55.120Z,8.27
2017-11-23T12:12:24.627Z,8.83
2017-11-23T12:15:07.583Z,10.90
2017-11-23T12:18:05.865Z,9.53
2017-11-23T12:20:51.885Z,9.90
2017-11-23T12:23:38.981Z,11.17
2017-11-23T12:26:07.554Z,9.13
2017-11-23T12:28:53.809Z,13.30
2017-11-23T12:31:22.432Z,12.53
2017-11-23T12:33:50.951Z,11.57
2017-11-23T12:36:21.127Z,16.80
2017-11-23T12:38:49.570Z,7.87
2017-11-23T12:41:18.245Z,8.80
2017-11-23T12:43:47.655Z,8.53
2017-11-23T12:46:17.105Z,12.60
2017-11-23T12:48:46.642Z,15.30
2017-11-23T12:51:15.697Z,12.23
2017-11-23T12:53:44.306Z,11.60
2017-11-23T12:56:13.504Z,14.13
2017-11-23T12:58:41.977Z,13.07
2017-11-23T13:01:11.295Z,16.30
2017-11-23T13:03:39.620Z,13.63
2017-11-23T13:06:07.915Z,11.77
2017-11-23T13:08:36.461Z,15.10
2017-11-23T13:11:04.956Z,14.87
2017-11-23T13:13:33.236Z,12.97
2017-11-23T13:16:01.764Z,23.13
2017-11-23T13:18:30.933Z,14.97
2017-11-23T13:21:02.463Z,19.80
2017-11-23T13:23:31.075Z,14.27
2017-11-23T13:25:59.545Z,11.60
2017-11-23T13:28:28.532Z,15.40
2017-11-23T13:30:57.662Z,21.13
2017-11-23T13:33:26.623Z,19.13
2017-11-23T13:35:55.521Z,20.20
2017-11-23T13:38:23.967Z,22.87
2017-11-23T13:40:52.986Z,27.47
2017-11-23T13:43:21.586Z,23.37
2017-11-23T13:45:50.366Z,22.83
2017-11-23T13:48:18.620Z,19.60
2017-11-23T13:50:47.110Z,22.07
2017-11-23T13:53:16.999Z,16.33
2017-11-23T13:55:45.350Z,12.50
2017-11-23T13:58:15.077Z,14.23
2017-11-23T14:00:43.737Z,11.90
2017-11-23T14:03:13.008Z,15.13
2017-11-23T14:05:48.678Z,15.43
2017-11-23T14:08:17.031Z,17.57
2017-11-23T14:10:45.316Z,17.20
2017-11-23T14:13:16.660Z,21.50
2017-11-23T14:15:46.346Z,34.80
2017-11-23T14:18:14.619Z,23.67
2017-11-23T14:20:43.177Z,24.00
2017-11-23T14:23:11.729Z,27.80
2017-11-23T14:25:43.184Z,16.13
2017-11-23T14:28:13.260Z,24.70
2017-11-23T14:30:42.048Z,42.63
2017-11-23T14:33:10.519Z,27.13
2017-11-23T14:35:38.794Z,17.13
2017-11-23T14:38:09.396Z,19.40
2017-11-23T14:40:38.824Z,17.53
2017-11-23T14:43:07.873Z,19.40
2017-11-23T14:45:37.325Z,15.67
2017-11-23T14:48:06.218Z,15.30
2017-11-23T14:50:34.461Z,17.83
2017-11-23T14:53:03.234Z,19.60
2017-11-23T14:55:33.599Z,22.20
2017-11-23T14:58:04.924Z,14.20
2017-11-23T15:00:34.451Z,14.20
2017-11-23T15:03:03.029Z,16.83
2017-11-23T15:05:31.811Z,15.97
2017-11-23T15:08:00.141Z,18.30
2017-11-23T15:10:28.804Z,20.67
2017-11-23T15:13:08.405Z,30.00
2017-11-23T15:15:38.439Z,34.47
2017-11-23T15:18:07.120Z,21.33
2017-11-23T15:20:35.776Z,26.80
2017-11-23T15:23:06.477Z,29.20
2017-11-23T15:25:35.899Z,40.37
2017-11-23T15:28:05.172Z,38.93
2017-11-23T15:30:33.424Z,29.63
2017-11-23T15:33:01.684Z,26.90
2017-11-23T15:35:30.199Z,25.57
2017-11-23T15:37:58.485Z,24.13
2017-11-23T15:40:30.163Z,21.87
2017-11-23T15:43:00.316Z,21.00
2017-11-23T15:45:29.289Z,27.20
2017-11-23T15:47:58.697Z,21.57
2017-11-23T15:50:27.247Z,29.00
2017-11-23T15:53:00.261Z,32.47
2017-11-23T15:55:29.664Z,35.30
2017-11-23T15:57:58.833Z,30.83
2017-11-23T16:00:27.376Z,29.17
2017-11-23T16:02:56.241Z,32.80
2017-11-23T16:05:25.936Z,28.97
2017-11-23T16:07:55.196Z,32.17
2017-11-23T16:10:25.233Z,29.77
2017-11-23T16:12:55.164Z,20.33
2017-11-23T16:15:24.950Z,35.23
2017-11-23T16:17:56.312Z,27.83
2017-11-23T16:20:25.653Z,24.47
2017-11-23T16:22:54.208Z,29.37
2017-11-23T16:25:24.299Z,22.03
2017-11-23T16:27:53.236Z,20.70
2017-11-23T16:30:21.975Z,27.53
2017-11-23T16:32:51.852Z,35.80
2017-11-23T16:35:20.854Z,34.43
2017-11-23T16:37:56.291Z,31.13
2017-11-23T16:40:39.891Z,24.20
2017-11-23T16:43:11.660Z,25.57
2017-11-23T16:59:30.216Z,35.27
2017-11-23T17:02:04.787Z,27.53
2017-11-23T17:04:43.671Z,28.53
2017-11-23T17:07:19.490Z,30.67
2017-11-23T17:23:20.780Z,30.63
2017-11-23T17:25:53.395Z,25.90
2017-11-23T17:28:23.329Z,29.97
2017-11-23T17:30:52.593Z,29.13
2017-11-23T17:33:24.038Z,35.70
2017-11-23T17:35:53.344Z,28.23
2017-11-23T17:38:21.927Z,38.37
2017-11-23T17:40:53.842Z,27.50
2017-11-23T17:43:23.596Z,30.27
2017-11-23T17:45:55.730Z,29.87
2017-11-23T17:48:24.363Z,28.13
2017-11-23T17:50:53.621Z,29.17
2017-11-23T17:53:27.093Z,35.00
2017-11-23T17:55:56.948Z,27.67
2017-11-23T17:58:26.667Z,28.80
2017-11-23T18:00:54.956Z,31.33
2017-11-23T18:03:25.532Z,27.13
2017-11-23T18:05:53.900Z,24.83
2017-11-23T18:08:22.179Z,27.23
2017-11-23T18:10:50.751Z,24.77
2017-11-23T18:13:19.215Z,25.00
2017-11-23T18:15:47.849Z,23.47
2017-11-23T18:18:16.925Z,22.73
2017-11-23T18:20:45.891Z,21.23
2017-11-23T18:23:15.887Z,30.13
2017-11-23T18:25:45.098Z,27.83
2017-11-23T18:28:13.661Z,25.30
2017-11-23T18:30:42.770Z,29.07
2017-11-23T18:33:12.125Z,24.90
2017-11-23T18:35:42.447Z,22.73
2017-11-23T18:38:13.689Z,29.83
2017-11-23T18:40:42.165Z,32.47
2017-11-23T18:43:11.062Z,36.60
2017-11-23T18:45:39.684Z,24.57
2017-11-23T18:48:07.994Z,25.60
2017-11-23T18:50:39.194Z,28.43
2017-11-23T18:53:07.571Z,23.13
2017-11-23T18:55:35.918Z,28.87
2017-11-23T18:58:04.989Z,48.80
2017-11-23T19:00:33.427Z,49.07
2017-11-23T19:03:01.727Z,34.73
2017-11-23T19:05:30.887Z,27.00
2017-11-23T19:07:59.317Z,27.27
2017-11-23T19:10:27.796Z,27.97
2017-11-23T19:12:56.307Z,25.07
2017-11-23T19:15:24.827Z,77.23
2017-11-23T19:17:53.847Z,71.17
2017-11-23T19:20:22.305Z,56.57
2017-11-23T19:22:51.211Z,41.20
2017-11-23T19:25:20.004Z,48.53
2017-11-23T19:27:49.013Z,35.17
2017-11-23T19:30:18.122Z,50.40
2017-11-23T19:32:46.383Z,33.20
2017-11-23T19:35:15.862Z,41.20
2017-11-23T19:37:45.959Z,41.10
2017-11-23T19:40:14.415Z,58.30
2017-11-23T19:42:42.746Z,54.43
2017-11-23T19:45:11.328Z,44.70
2017-11-23T19:47:42.620Z,43.50
2017-11-23T19:50:11.016Z,33.60
2017-11-23T19:52:40.740Z,31.97
2017-11-23T19:55:09.104Z,33.70
2017-11-23T19:57:38.571Z,32.80
2017-11-23T20:00:06.896Z,30.47
2017-11-23T20:02:36.560Z,29.93
2017-11-23T20:05:06.715Z,28.70
2017-11-23T20:07:35.327Z,33.07
2017-11-23T20:10:04.688Z,39.80
2017-11-23T20:12:34.099Z,40.13
2017-11-23T20:15:02.732Z,52.23
2017-11-23T20:17:32.064Z,56.97
2017-11-23T20:20:02.284Z,45.13
2017-11-23T20:22:31.400Z,35.70
2017-11-23T20:25:00.234Z,34.00
2017-11-23T20:27:29.298Z,36.47
2017-11-23T20:30:00.235Z,29.00
2017-11-23T20:32:29.573Z,40.60
2017-11-23T20:34:58.887Z,34.20
2017-11-23T20:37:28.413Z,32.03
2017-11-23T20:39:56.703Z,34.63
2017-11-23T20:42:26.519Z,33.93
2017-11-23T20:44:55.097Z,36.37
2017-11-23T20:47:23.969Z,36.77
2017-11-23T20:49:55.738Z,36.57
2017-11-23T20:52:25.100Z,35.90
2017-11-23T20:54:54.622Z,34.40
2017-11-23T20:57:22.975Z,35.03
2017-11-23T20:59:51.615Z,32.40
2017-11-23T21:02:20.775Z,29.00
2017-11-23T21:04:50.539Z,38.53
2017-11-23T21:07:20.030Z,32.67
2017-11-23T21:09:51.460Z,38.93
2017-11-23T21:12:20.254Z,31.50
2017-11-23T21:14:49.264Z,32.93
2017-11-23T21:17:18.619Z,40.90
2017-11-23T21:19:47.131Z,35.30
2017-11-23T21:22:16.124Z,41.33
2017-11-23T21:24:45.720Z,35.73
2017-11-23T21:27:14.249Z,42.60
2017-11-23T21:29:43.810Z,32.87
2017-11-23T21:32:12.841Z,34.87
2017-11-23T21:34:41.924Z,38.23
2017-11-23T21:37:11.712Z,29.43
2017-11-23T21:39:41.053Z,25.60
2017-11-23T21:42:09.340Z,33.00
2017-11-23T21:44:37.662Z,26.80
2017-11-23T21:47:06.834Z,26.80
2017-11-23T21:49:36.023Z,33.63
2017-11-23T21:52:04.354Z,26.17
2017-11-23T21:54:32.602Z,33.73
2017-11-23T21:57:02.138Z,39.60
2017-11-23T21:59:31.809Z,34.67
2017-11-23T22:02:03.136Z,40.90
2017-11-23T22:04:34.733Z,40.10
2017-11-23T22:07:04.315Z,35.13
2017-11-23T22:09:32.606Z,35.70
2017-11-23T22:12:01.951Z,35.10
2017-11-23T22:14:31.057Z,38.47
2017-11-23T22:16:59.532Z,37.43
2017-11-23T22:19:28.604Z,37.47
2017-11-23T22:21:57.848Z,29.17
2017-11-23T22:24:26.290Z,29.27
2017-11-23T22:26:55.366Z,26.30
2017-11-23T22:29:24.124Z,28.57
2017-11-23T22:31:52.598Z,24.90
2017-11-23T22:34:21.114Z,29.60
2017-11-23T22:36:49.506Z,31.50
2017-11-23T22:39:18.854Z,30.27
2017-11-23T22:41:47.129Z,36.07
2017-11-23T22:44:15.499Z,27.83
2017-11-23T22:46:44.598Z,29.17
2017-11-23T22:49:13.344Z,36.37
2017-11-23T22:51:45.313Z,30.03
2017-11-23T22:54:14.643Z,30.20
2017-11-23T22:56:46.609Z,26.03
2017-11-23T22:59:15.208Z,29.27
2017-11-23T23:01:46.740Z,26.77
2017-11-23T23:04:15.677Z,30.37
2017-11-23T23:06:45.731Z,22.27
2017-11-23T23:09:14.771Z,27.50
2017-11-23T23:11:43.237Z,36.13
2017-11-23T23:14:12.733Z,21.87
2017-11-23T23:16:41.196Z,27.87
2017-11-23T23:19:09.635Z,27.53
2017-11-23T23:21:37.972Z,35.47
2017-11-23T23:24:07.295Z,28.00
2017-11-23T23:26:35.980Z,24.77
2017-11-23T23:29:04.258Z,23.97
2017-11-23T23:31:32.657Z,22.67
2017-11-23T23:34:01.224Z,33.17
2017-11-23T23:36:29.825Z,24.07
2017-11-23T23:38:59.609Z,26.23
2017-11-23T23:41:28.257Z,35.40
2017-11-23T23:43:56.812Z,44.10
2017-11-23T23:46:25.182Z,26.53
2017-11-23T23:48:53.675Z,25.33
2017-11-23T23:51:23.151Z,43.20
2017-11-23T23:53:51.753Z,34.10
2017-11-23T23:56:21.710Z,35.47
2017-11-23T23:58:50.325Z,32.13
